Time;durP1;ratioP1;P1;durP2;ratioP2;P2;SDS_P1;SDS_P2;PMS_P1;PMS_P2;Temp;Humidity;BMP_temperature;BMP_pressure;BME280_temperature;BME280_humidity;BME280_pressure;Samples;Min_cycle;Max_cycle;Signal;HPM_P1;HPM_P2
2021/07/28 00:00:04;;;;;;;9.87;8.97;;;26.10;60.70;;;;;;4955639;28;20590;-48
2021/07/28 00:02:30;;;;;;;11.23;10.20;;;26.10;60.90;;;;;;4954811;29;20432;-48
2021/07/28 00:04:56;;;;;;;9.57;8.77;;;26.00;61.10;;;;;;4955680;29;20507;-47
2021/07/28 00:07:21;;;;;;;11.40;10.30;;;26.00;61.00;;;;;;4954590;29;20664;-47
2021/07/28 00:09:47;;;;;;;10.30;9.30;;;26.00;61.00;;;;;;4953988;28;20210;-47
2021/07/28 00:12:12;;;;;;;12.33;10.30;;;26.00;61.00;;;;;;4954953;29;20224;-49
2021/07/28 00:14:38;;;;;;;11.63;10.63;;;26.00;61.10;;;;;;4955296;28;20228;-51
2021/07/28 00:17:06;;;;;;;12.03;10.87;;;25.90;61.10;;;;;;4954289;28;20306;-47
2021/07/28 00:19:45;;;;;;;11.53;10.47;;;25.90;61.40;;;;;;4955101;29;20565;-51
2021/07/28 00:24:55;;;;;;;12.40;11.10;;;25.80;61.50;;;;;;4936046;29;20802;-49
2021/07/28 00:27:22;;;;;;;12.13;10.80;;;25.80;61.50;;;;;;4935196;29;20500;-47
2021/07/28 00:29:47;;;;;;;11.80;10.67;;;25.90;61.50;;;;;;4935814;29;20467;-47
2021/07/28 00:32:13;;;;;;;12.07;10.80;;;25.70;61.60;;;;;;4952444;28;20228;-48
2021/07/28 00:34:41;;;;;;;11.70;10.03;;;25.70;61.60;;;;;;4955298;28;20235;-48
2021/07/28 00:37:06;;;;;;;12.40;11.17;;;25.70;61.60;;;;;;4952436;29;20619;-47
2021/07/28 00:39:32;;;;;;;12.23;11.13;;;25.80;61.70;;;;;;4954842;28;20535;-52
2021/07/28 00:41:57;;;;;;;13.37;11.50;;;25.80;61.80;;;;;;4954548;28;20667;-47
2021/07/28 00:44:23;;;;;;;13.13;11.83;;;25.80;61.80;;;;;;4954959;28;20201;-47
2021/07/28 00:46:49;;;;;;;10.90;9.87;;;25.80;61.90;;;;;;4953756;29;20287;-47
2021/07/28 00:49:14;;;;;;;13.60;12.40;;;25.70;62.00;;;;;;4954774;28;20275;-46
2021/07/28 00:51:40;;;;;;;12.53;11.30;;;25.70;62.00;;;;;;4954263;29;20568;-50
2021/07/28 00:54:06;;;;;;;12.93;11.77;;;25.70;62.00;;;;;;4954747;28;20646;-47
2021/07/28 00:56:32;;;;;;;12.37;11.27;;;25.70;61.90;;;;;;4953778;28;20636;-46
2021/07/28 00:58:58;;;;;;;13.47;12.00;;;25.60;62.10;;;;;;4954339;29;20200;-46
2021/07/28 01:01:24;;;;;;;13.50;12.20;;;25.60;62.30;;;;;;4954112;29;20336;-48
2021/07/28 01:03:49;;;;;;;15.03;12.37;;;25.60;62.60;;;;;;4952946;29;20553;-48
2021/07/28 01:06:15;;;;;;;14.33;12.83;;;25.60;62.60;;;;;;4954223;29;20202;-46
2021/07/28 01:08:41;;;;;;;12.43;11.23;;;25.60;62.60;;;;;;4954213;29;20197;-47
2021/07/28 01:11:07;;;;;;;13.33;12.13;;;25.60;62.50;;;;;;4954189;28;20685;-49
2021/07/28 01:13:35;;;;;;;13.73;12.40;;;25.60;62.50;;;;;;4954281;29;20204;-48
2021/07/28 01:16:15;;;;;;;12.93;11.70;;;25.70;62.50;;;;;;4953585;29;20845;-46
2021/07/28 01:18:41;;;;;;;12.33;11.13;;;25.60;62.50;;;;;;4953998;29;20475;-47
2021/07/28 01:21:11;;;;;;;14.30;12.83;;;25.60;62.60;;;;;;4941762;29;20518;-48
2021/07/28 01:23:38;;;;;;;13.53;12.23;;;25.60;62.60;;;;;;4935139;29;20211;-47
2021/07/28 01:26:05;;;;;;;16.87;13.20;;;25.60;62.40;;;;;;4933904;29;20794;-48
2021/07/28 01:28:32;;;;;;;12.40;11.20;;;25.60;62.70;;;;;;4934519;29;20830;-47
2021/07/28 01:31:10;;;;;;;13.33;11.93;;;25.50;62.40;;;;;;4940290;29;20942;-47
2021/07/28 01:33:38;;;;;;;14.83;12.30;;;25.50;62.60;;;;;;4954102;28;20563;-47
2021/07/28 01:36:05;;;;;;;14.43;12.77;;;25.50;62.70;;;;;;4953036;29;20487;-47
2021/07/28 01:38:31;;;;;;;14.07;12.57;;;25.40;62.90;;;;;;4953941;29;20798;-49
2021/07/28 01:41:00;;;;;;;16.10;12.43;;;25.40;62.70;;;;;;4953291;28;20439;-50
2021/07/28 01:43:27;;;;;;;12.57;11.30;;;25.40;62.60;;;;;;4953967;29;20800;-48
2021/07/28 01:45:54;;;;;;;13.10;11.90;;;25.40;62.60;;;;;;4952731;29;20431;-49
2021/07/28 01:48:20;;;;;;;12.90;11.70;;;25.40;62.70;;;;;;4953413;29;20452;-47
2021/07/28 01:50:46;;;;;;;13.47;12.17;;;25.40;62.90;;;;;;4953291;29;20470;-47
2021/07/28 01:53:12;;;;;;;13.93;12.40;;;25.30;62.80;;;;;;4953729;29;20234;-47
2021/07/28 01:55:38;;;;;;;13.27;11.87;;;25.30;62.80;;;;;;4951055;29;20443;-47
2021/07/28 01:58:03;;;;;;;13.70;12.33;;;25.30;62.70;;;;;;4953673;29;20526;-47
2021/07/28 02:00:29;;;;;;;12.37;11.00;;;25.40;62.70;;;;;;4953537;29;20187;-50
2021/07/28 02:03:02;;;;;;;13.30;11.33;;;25.40;62.80;;;;;;4953464;29;20203;-47
2021/07/28 02:05:35;;;;;;;12.90;11.60;;;25.40;63.00;;;;;;4953098;29;20208;-51
2021/07/28 02:08:02;;;;;;;13.67;12.27;;;25.30;63.20;;;;;;4953423;29;20423;-47
2021/07/28 02:10:29;;;;;;;12.87;11.57;;;25.30;63.30;;;;;;4953458;29;20447;-50
2021/07/28 02:12:54;;;;;;;12.00;10.90;;;25.30;63.40;;;;;;4953172;28;20498;-49
2021/07/28 02:15:23;;;;;;;12.97;11.70;;;25.30;63.50;;;;;;4953700;29;20436;-47
2021/07/28 02:17:50;;;;;;;12.57;11.27;;;25.30;63.80;;;;;;4952956;29;20235;-48
2021/07/28 02:20:16;;;;;;;13.47;12.07;;;25.30;63.90;;;;;;4947683;29;20432;-52
2021/07/28 02:22:42;;;;;;;12.70;11.40;;;25.20;63.90;;;;;;4932364;29;20431;-48
2021/07/28 02:25:09;;;;;;;12.27;10.97;;;25.20;63.90;;;;;;4934370;29;20432;-47
2021/07/28 02:27:34;;;;;;;11.77;10.67;;;25.20;64.10;;;;;;4933101;29;20201;-51
2021/07/28 02:30:00;;;;;;;14.83;11.43;;;25.10;64.60;;;;;;4934177;29;20805;-47
2021/07/28 02:32:26;;;;;;;13.00;11.80;;;25.20;64.70;;;;;;4952263;28;20224;-47
2021/07/28 02:34:52;;;;;;;13.10;11.80;;;25.10;64.80;;;;;;4953369;29;20218;-50
2021/07/28 02:37:18;;;;;;;14.20;12.80;;;25.10;64.70;;;;;;4952415;28;20428;-48
2021/07/28 02:39:43;;;;;;;15.23;12.40;;;25.00;64.60;;;;;;4957239;28;20220;-47
2021/07/28 02:42:09;;;;;;;15.07;13.57;;;24.90;64.90;;;;;;4956764;29;20191;-47
2021/07/28 02:44:34;;;;;;;14.27;12.80;;;24.90;64.90;;;;;;4956975;29;20247;-47
2021/07/28 02:47:00;;;;;;;14.27;12.97;;;25.00;64.90;;;;;;4955776;28;20230;-50
2021/07/28 02:49:25;;;;;;;13.50;12.17;;;25.00;64.80;;;;;;4955280;29;20243;-49
2021/07/28 02:51:51;;;;;;;12.63;11.40;;;25.00;64.50;;;;;;4956313;28;20637;-48
2021/07/28 02:54:18;;;;;;;13.00;11.20;;;25.00;64.40;;;;;;4956852;29;20219;-50
2021/07/28 02:56:43;;;;;;;16.27;13.23;;;24.90;64.40;;;;;;4955978;29;20267;-48
2021/07/28 02:59:09;;;;;;;11.83;10.63;;;24.90;64.70;;;;;;4956621;28;20439;-47
2021/07/28 03:01:34;;;;;;;11.90;10.70;;;24.80;64.90;;;;;;4956390;28;20200;-49
2021/07/28 03:04:00;;;;;;;13.40;12.00;;;24.80;65.60;;;;;;4956946;29;20199;-49
2021/07/28 03:06:26;;;;;;;11.43;10.33;;;24.90;64.80;;;;;;4955740;28;20187;-47
2021/07/28 03:08:51;;;;;;;12.30;11.10;;;24.80;64.70;;;;;;4956624;29;20590;-48
2021/07/28 03:11:17;;;;;;;11.87;10.77;;;24.90;64.80;;;;;;4955754;28;20200;-47
2021/07/28 03:13:42;;;;;;;13.20;10.00;;;24.90;64.80;;;;;;4956498;29;20208;-52
2021/07/28 03:16:09;;;;;;;12.67;10.80;;;24.90;64.70;;;;;;4954164;28;20199;-49
2021/07/28 03:18:35;;;;;;;10.87;9.77;;;24.90;64.70;;;;;;4956249;28;20235;-47
2021/07/28 03:21:00;;;;;;;12.50;11.10;;;24.90;64.80;;;;;;4944177;29;20433;-50
2021/07/28 03:23:26;;;;;;;12.43;11.23;;;24.90;64.90;;;;;;4937190;29;20247;-50
2021/07/28 03:25:51;;;;;;;12.27;11.10;;;24.90;65.00;;;;;;4936668;29;20307;-52
2021/07/28 03:28:17;;;;;;;12.40;11.10;;;24.80;64.90;;;;;;4937282;29;20193;-47
2021/07/28 03:30:43;;;;;;;11.90;10.90;;;24.80;64.60;;;;;;4941819;29;20192;-47
2021/07/28 03:33:08;;;;;;;12.03;10.83;;;24.90;64.80;;;;;;4955893;28;20314;-50
2021/07/28 03:35:34;;;;;;;11.30;10.20;;;24.80;64.90;;;;;;4955094;29;20586;-52
2021/07/28 03:37:59;;;;;;;15.60;11.40;;;24.80;64.90;;;;;;4956097;28;20219;-51
2021/07/28 03:40:25;;;;;;;13.10;11.90;;;24.80;65.00;;;;;;4955861;29;20335;-48
2021/07/28 03:42:51;;;;;;;13.33;12.10;;;24.70;65.20;;;;;;4953715;29;20192;-48
2021/07/28 03:45:16;;;;;;;13.87;12.37;;;24.60;65.40;;;;;;4955778;29;20195;-51
2021/07/28 03:47:42;;;;;;;13.27;11.87;;;24.60;65.40;;;;;;4955411;29;20199;-52
2021/07/28 03:50:08;;;;;;;14.73;13.30;;;24.60;65.50;;;;;;4955494;28;20207;-49
2021/07/28 03:52:34;;;;;;;14.57;12.90;;;24.60;65.80;;;;;;4954956;29;20227;-46
2021/07/28 03:54:59;;;;;;;12.77;11.47;;;24.50;66.00;;;;;;4956088;29;20768;-51
2021/07/28 03:57:25;;;;;;;12.87;11.70;;;24.60;66.10;;;;;;4954956;29;20192;-50
2021/07/28 03:59:50;;;;;;;12.47;11.17;;;24.60;66.10;;;;;;4955728;28;20538;-49
2021/07/28 04:02:16;;;;;;;14.90;12.33;;;24.50;66.10;;;;;;4955156;29;20191;-48
2021/07/28 04:04:41;;;;;;;13.53;12.10;;;24.60;66.10;;;;;;4955825;29;20278;-48
2021/07/28 04:07:07;;;;;;;11.90;10.70;;;24.60;65.90;;;;;;4954671;28;20191;-52
2021/07/28 04:09:33;;;;;;;11.37;10.27;;;24.60;66.00;;;;;;4954031;28;20207;-50
2021/07/28 04:11:58;;;;;;;12.07;10.70;;;24.60;65.90;;;;;;4954676;29;20219;-48
2021/07/28 04:14:24;;;;;;;11.70;10.50;;;24.60;65.80;;;;;;4955701;28;20302;-47
2021/07/28 04:16:50;;;;;;;12.27;11.07;;;24.60;65.80;;;;;;4954292;29;20639;-47
2021/07/28 04:19:15;;;;;;;10.90;9.90;;;24.70;65.80;;;;;;4955653;29;20192;-51
2021/07/28 04:21:41;;;;;;;11.13;10.00;;;24.70;65.90;;;;;;4937703;29;20695;-47
2021/07/28 04:24:06;;;;;;;11.40;10.40;;;24.70;66.00;;;;;;4936397;29;20244;-51
2021/07/28 04:26:32;;;;;;;10.97;9.93;;;24.70;66.00;;;;;;4935259;29;20200;-50
2021/07/28 04:28:57;;;;;;;11.27;10.27;;;24.70;66.00;;;;;;4936131;29;20193;-49
2021/07/28 04:31:23;;;;;;;11.90;10.80;;;24.70;65.80;;;;;;4945540;29;20563;-47
2021/07/28 04:33:49;;;;;;;10.87;9.87;;;24.70;65.90;;;;;;4954287;29;20196;-48
2021/07/28 04:36:14;;;;;;;12.20;10.83;;;24.70;65.90;;;;;;4953295;28;20199;-52
2021/07/28 04:38:40;;;;;;;12.43;11.23;;;24.70;66.00;;;;;;4955217;29;20432;-51
2021/07/28 04:41:06;;;;;;;11.50;10.50;;;24.70;66.00;;;;;;4954011;29;20302;-50
2021/07/28 04:43:31;;;;;;;12.60;11.40;;;24.70;66.00;;;;;;4955064;28;20192;-49
2021/07/28 04:45:58;;;;;;;13.43;11.37;;;24.70;65.90;;;;;;4953758;28;20202;-47
2021/07/28 04:48:24;;;;;;;13.17;10.80;;;24.80;65.90;;;;;;4954688;28;20192;-52
2021/07/28 04:50:50;;;;;;;12.10;10.50;;;24.80;65.90;;;;;;4954222;29;20428;-47
2021/07/28 04:53:15;;;;;;;11.80;10.57;;;24.70;66.00;;;;;;4954809;29;21037;-49
2021/07/28 04:55:41;;;;;;;11.33;10.33;;;24.80;66.10;;;;;;4953993;29;20199;-52
2021/07/28 04:58:07;;;;;;;12.30;11.00;;;24.80;66.10;;;;;;4954422;28;20188;-51
2021/07/28 05:00:33;;;;;;;11.37;10.33;;;24.80;66.40;;;;;;4951429;28;20210;-47
2021/07/28 05:02:59;;;;;;;12.17;11.10;;;24.80;66.40;;;;;;4954682;29;20432;-52
2021/07/28 05:05:24;;;;;;;11.70;10.50;;;24.80;66.40;;;;;;4954202;29;20959;-51
2021/07/28 05:07:50;;;;;;;14.80;11.07;;;24.80;66.60;;;;;;4953840;29;20239;-50
2021/07/28 05:10:15;;;;;;;12.23;10.93;;;24.90;66.70;;;;;;4954507;29;20192;-50
2021/07/28 05:12:41;;;;;;;11.83;10.73;;;24.90;66.60;;;;;;4953830;28;20311;-46
2021/07/28 05:15:07;;;;;;;12.37;11.17;;;24.90;66.50;;;;;;4953898;29;20784;-50
2021/07/28 05:17:33;;;;;;;11.83;10.60;;;24.90;66.20;;;;;;4953329;29;20360;-50
2021/07/28 05:19:58;;;;;;;11.60;10.40;;;25.00;66.20;;;;;;4950826;29;20576;-52
2021/07/28 05:22:24;;;;;;;11.70;10.50;;;25.00;66.10;;;;;;4934479;29;20205;-51
2021/07/28 05:24:49;;;;;;;12.53;11.33;;;25.00;65.90;;;;;;4935118;29;20200;-49
2021/07/28 05:27:16;;;;;;;12.10;10.80;;;25.00;65.90;;;;;;4932652;29;20197;-48
2021/07/28 05:29:41;;;;;;;12.90;11.63;;;25.10;65.90;;;;;;4935130;29;20204;-52
2021/07/28 05:32:07;;;;;;;13.23;11.97;;;25.10;65.80;;;;;;4950716;28;20483;-46
2021/07/28 05:34:33;;;;;;;11.97;10.90;;;25.10;65.80;;;;;;4954016;28;20259;-49
2021/07/28 05:36:58;;;;;;;12.80;11.60;;;25.10;65.70;;;;;;4953016;29;20203;-50
2021/07/28 05:39:25;;;;;;;12.57;11.40;;;25.20;65.70;;;;;;4953828;29;20212;-51
2021/07/28 05:41:50;;;;;;;13.10;11.90;;;25.20;65.40;;;;;;4953405;29;20220;-47
2021/07/28 05:44:16;;;;;;;13.53;12.33;;;25.10;64.90;;;;;;4954139;29;20881;-48
2021/07/28 05:46:41;;;;;;;11.80;10.67;;;25.20;64.80;;;;;;4952871;28;20188;-48
2021/07/28 05:49:07;;;;;;;12.33;11.13;;;25.20;64.50;;;;;;4953660;29;20192;-52
2021/07/28 05:51:32;;;;;;;16.17;10.43;;;25.20;64.60;;;;;;4953259;29;20235;-48
2021/07/28 05:53:58;;;;;;;12.33;11.13;;;25.10;64.70;;;;;;4952283;29;20227;-47
2021/07/28 05:56:24;;;;;;;10.10;9.10;;;25.20;64.90;;;;;;4952485;29;20207;-48
2021/07/28 05:58:49;;;;;;;11.67;10.50;;;25.20;64.80;;;;;;4953567;28;20218;-49
2021/07/28 06:01:16;;;;;;;11.70;10.60;;;25.20;64.60;;;;;;4953178;29;20192;-52
2021/07/28 06:03:41;;;;;;;12.33;11.13;;;25.30;64.60;;;;;;4953494;29;20196;-47
2021/07/28 06:06:07;;;;;;;13.43;9.80;;;25.30;64.40;;;;;;4952538;29;20482;-51
2021/07/28 06:08:32;;;;;;;10.30;9.30;;;25.30;63.90;;;;;;4953610;28;20196;-49
2021/07/28 06:10:58;;;;;;;10.93;9.93;;;25.40;63.90;;;;;;4952932;29;20223;-51
2021/07/28 06:13:23;;;;;;;9.50;8.60;;;25.40;63.90;;;;;;4953553;28;20219;-47
2021/07/28 06:15:50;;;;;;;10.40;9.40;;;25.40;63.80;;;;;;4952696;29;20211;-47
2021/07/28 06:18:16;;;;;;;10.00;9.00;;;25.40;63.70;;;;;;4953558;29;20271;-52
2021/07/28 06:20:42;;;;;;;9.20;8.40;;;25.40;63.50;;;;;;4942261;28;20691;-48
2021/07/28 06:23:07;;;;;;;9.37;8.60;;;25.40;63.10;;;;;;4934200;29;20635;-50
2021/07/28 06:25:33;;;;;;;8.97;8.20;;;25.40;62.30;;;;;;4933507;29;20189;-51
2021/07/28 06:27:58;;;;;;;8.93;8.13;;;25.40;62.30;;;;;;4934320;29;20573;-52
2021/07/28 06:30:24;;;;;;;8.73;7.80;;;25.40;62.10;;;;;;4937022;29;20278;-49
2021/07/28 06:32:50;;;;;;;8.00;7.30;;;25.50;62.10;;;;;;4952654;28;20247;-48
2021/07/28 06:35:15;;;;;;;8.10;7.40;;;25.60;62.10;;;;;;4953093;29;20204;-51
2021/07/28 06:37:41;;;;;;;9.20;7.50;;;25.60;61.90;;;;;;4952630;29;20219;-52
2021/07/28 06:40:07;;;;;;;9.10;8.00;;;25.70;61.70;;;;;;4953326;29;20217;-52
2021/07/28 06:42:33;;;;;;;10.00;9.10;;;25.70;61.10;;;;;;4952405;29;20239;-48
2021/07/28 06:44:58;;;;;;;9.57;8.50;;;25.80;60.80;;;;;;4952848;29;20863;-51
2021/07/28 06:47:24;;;;;;;8.30;7.50;;;25.70;60.70;;;;;;4951122;28;20192;-52
2021/07/28 06:49:49;;;;;;;9.47;8.57;;;25.70;60.90;;;;;;4952974;29;20196;-50
2021/07/28 06:52:15;;;;;;;9.80;8.60;;;25.70;61.60;;;;;;4952516;28;20727;-50
2021/07/28 06:54:41;;;;;;;8.83;7.93;;;25.70;61.80;;;;;;4953200;29;20188;-50
2021/07/28 06:57:06;;;;;;;9.47;8.57;;;25.70;61.90;;;;;;4952049;29;20282;-52
2021/07/28 06:59:32;;;;;;;11.37;8.97;;;25.70;62.10;;;;;;4953271;29;20652;-52
2021/07/28 07:01:57;;;;;;;9.43;8.63;;;25.70;61.90;;;;;;4952308;28;20192;-51
2021/07/28 07:04:23;;;;;;;10.10;7.90;;;25.70;62.20;;;;;;4953128;29;20246;-47
2021/07/28 07:06:48;;;;;;;12.30;8.70;;;25.70;62.60;;;;;;4951933;29;20189;-49
2021/07/28 07:09:14;;;;;;;9.70;8.70;;;25.80;62.90;;;;;;4953236;28;20648;-53
2021/07/28 07:11:40;;;;;;;10.23;9.23;;;25.70;63.10;;;;;;4952162;28;20680;-52
2021/07/28 07:14:05;;;;;;;9.40;7.80;;;25.70;63.20;;;;;;4951368;28;20644;-51
2021/07/28 07:16:31;;;;;;;10.90;8.70;;;25.70;62.90;;;;;;4952031;29;20438;-47
2021/07/28 07:18:57;;;;;;;10.77;9.57;;;25.70;62.50;;;;;;4952960;29;20336;-47
2021/07/28 07:21:22;;;;;;;12.83;8.40;;;25.60;63.00;;;;;;4937817;29;20197;-52
2021/07/28 07:23:49;;;;;;;8.47;7.30;;;25.50;63.40;;;;;;4934716;29;20248;-52
2021/07/28 07:26:14;;;;;;;8.13;7.13;;;25.30;62.70;;;;;;4936360;29;20235;-52
2021/07/28 07:28:40;;;;;;;9.60;6.37;;;25.10;62.90;;;;;;4937132;29;20439;-51
2021/07/28 07:31:09;;;;;;;6.93;6.33;;;25.00;63.30;;;;;;4944724;28;20239;-48
2021/07/28 07:33:41;;;;;;;6.00;5.40;;;24.80;62.90;;;;;;4956116;29;20302;-51
2021/07/28 07:36:14;;;;;;;6.37;5.77;;;24.80;63.70;;;;;;4955074;28;20451;-49
2021/07/28 07:38:40;;;;;;;5.97;5.47;;;24.80;63.00;;;;;;4956163;29;20447;-52
2021/07/28 07:41:06;;;;;;;6.13;5.30;;;24.80;62.00;;;;;;4953853;28;21278;-50
2021/07/28 07:43:32;;;;;;;6.20;5.63;;;24.80;62.00;;;;;;4956057;29;20227;-51
2021/07/28 07:45:58;;;;;;;6.27;5.67;;;24.70;62.20;;;;;;4955041;28;20975;-50
2021/07/28 07:48:24;;;;;;;6.03;5.53;;;24.70;60.30;;;;;;4955847;28;20467;-50
2021/07/28 07:50:50;;;;;;;6.17;5.60;;;24.70;60.90;;;;;;4955484;28;20715;-49
2021/07/28 07:53:16;;;;;;;7.40;5.00;;;24.70;61.20;;;;;;4956021;28;20695;-51
2021/07/28 07:55:41;;;;;;;6.23;5.63;;;24.70;60.70;;;;;;4955049;29;20211;-52
2021/07/28 07:58:07;;;;;;;5.87;5.37;;;24.70;60.80;;;;;;4955795;28;20708;-52
2021/07/28 08:00:32;;;;;;;6.23;5.33;;;24.70;60.70;;;;;;4955194;29;20578;-50
2021/07/28 08:02:58;;;;;;;6.57;5.97;;;24.50;60.10;;;;;;4955939;29;20196;-51
2021/07/28 08:05:23;;;;;;;5.40;4.90;;;24.40;60.10;;;;;;4954667;29;20192;-52
2021/07/28 08:07:49;;;;;;;5.50;4.97;;;24.50;60.20;;;;;;4952779;29;20679;-53
2021/07/28 08:10:15;;;;;;;7.13;5.57;;;24.50;59.80;;;;;;4954999;29;20691;-51
2021/07/28 08:12:41;;;;;;;6.07;5.47;;;24.40;59.60;;;;;;4954469;28;20613;-52
2021/07/28 08:15:07;;;;;;;6.13;5.63;;;24.40;60.00;;;;;;4954211;28;20199;-53
2021/07/28 08:17:32;;;;;;;8.20;5.07;;;24.30;60.80;;;;;;4954414;29;20231;-50
2021/07/28 08:20:00;;;;;;;6.40;5.90;;;24.10;62.10;;;;;;4951511;29;20279;-48
2021/07/28 08:22:26;;;;;;;5.77;5.27;;;24.10;61.80;;;;;;4935010;29;20625;-50
2021/07/28 08:24:52;;;;;;;6.20;5.50;;;24.10;62.00;;;;;;4935180;29;20468;-52
2021/07/28 08:27:18;;;;;;;5.67;5.17;;;24.10;61.60;;;;;;4935057;29;20432;-49
2021/07/28 08:29:43;;;;;;;7.60;6.40;;;24.10;61.70;;;;;;4935696;29;20184;-49
2021/07/28 08:32:09;;;;;;;6.27;5.67;;;24.10;61.30;;;;;;4949739;29;20240;-51
2021/07/28 08:34:34;;;;;;;6.90;6.30;;;24.10;61.50;;;;;;4953857;28;20196;-52
2021/07/28 08:37:00;;;;;;;7.07;5.87;;;24.00;61.70;;;;;;4953168;29;20227;-47
2021/07/28 08:39:26;;;;;;;6.13;5.63;;;24.10;61.60;;;;;;4954430;29;20272;-49
2021/07/28 08:41:53;;;;;;;6.03;5.43;;;24.10;61.20;;;;;;4954049;28;20219;-52
2021/07/28 08:44:21;;;;;;;6.60;6.00;;;24.10;61.30;;;;;;4954418;29;20436;-52
2021/07/28 08:46:49;;;;;;;6.63;6.03;;;24.20;61.40;;;;;;4953437;29;20990;-51
2021/07/28 08:49:16;;;;;;;6.13;5.63;;;24.20;61.30;;;;;;4954296;29;20570;-52
2021/07/28 08:51:43;;;;;;;6.43;5.70;;;24.20;61.50;;;;;;4953603;29;20483;-47
2021/07/28 08:54:09;;;;;;;5.97;5.43;;;24.30;61.00;;;;;;4954127;29;20438;-47
2021/07/28 08:56:39;;;;;;;6.53;5.93;;;24.30;61.10;;;;;;4953198;28;20920;-48
2021/07/28 08:59:05;;;;;;;6.77;6.07;;;24.40;61.10;;;;;;4952495;29;20239;-51
2021/07/28 09:01:31;;;;;;;6.93;5.50;;;24.50;60.80;;;;;;4953369;29;20459;-47
2021/07/28 09:03:57;;;;;;;6.30;5.67;;;24.40;59.90;;;;;;4953934;29;20455;-47
2021/07/28 09:06:30;;;;;;;6.83;5.40;;;24.40;59.90;;;;;;4953256;29;20279;-46
2021/07/28 09:09:00;;;;;;;4.83;4.43;;;24.40;60.30;;;;;;4953746;28;20286;-47
2021/07/28 09:11:26;;;;;;;6.00;5.40;;;24.40;59.90;;;;;;4953137;28;20435;-47
2021/07/28 09:13:57;;;;;;;5.40;4.90;;;24.50;59.30;;;;;;4953886;29;20563;-47
2021/07/28 09:16:23;;;;;;;5.80;5.33;;;24.60;59.40;;;;;;4952994;28;20502;-47
2021/07/28 09:18:52;;;;;;;6.53;5.50;;;24.60;59.40;;;;;;4953241;28;20461;-47
2021/07/28 09:21:21;;;;;;;5.43;4.80;;;24.60;59.90;;;;;;4939176;29;20204;-47
2021/07/28 09:23:51;;;;;;;10.00;5.43;;;24.60;59.70;;;;;;4934549;29;20449;-48
2021/07/28 09:26:31;;;;;;;5.33;4.83;;;24.80;58.70;;;;;;4931950;29;20443;-50
2021/07/28 09:29:20;;;;;;;6.00;4.77;;;24.90;58.10;;;;;;4934174;29;20524;-49
2021/07/28 09:31:54;;;;;;;5.53;4.10;;;25.00;57.70;;;;;;4947407;29;20578;-48
2021/07/28 09:36:46;;;;;;;4.70;4.30;;;24.90;57.20;;;;;;4952706;29;20534;-47
2021/07/28 09:39:31;;;;;;;5.00;4.60;;;25.00;57.50;;;;;;4953298;28;20188;-47
2021/07/28 09:41:58;;;;;;;4.53;4.13;;;24.90;57.20;;;;;;4952818;28;20435;-47
2021/07/28 09:44:25;;;;;;;6.90;3.97;;;24.90;56.90;;;;;;4953594;28;20835;-47
2021/07/28 09:47:16;;;;;;;5.93;4.67;;;25.00;56.90;;;;;;4952051;28;20435;-47
2021/07/28 09:49:46;;;;;;;5.07;4.53;;;24.90;57.30;;;;;;4953248;29;20842;-48
2021/07/28 09:52:16;;;;;;;5.00;4.10;;;24.80;57.30;;;;;;4951437;29;20483;-52
2021/07/28 09:54:42;;;;;;;5.67;4.80;;;24.70;57.70;;;;;;4953402;28;20783;-51
2021/07/28 09:57:10;;;;;;;7.77;4.60;;;24.50;57.20;;;;;;4953299;29;20463;-51
2021/07/28 09:59:39;;;;;;;4.60;4.20;;;24.30;58.30;;;;;;4953923;29;20282;-52
2021/07/28 10:02:05;;;;;;;4.50;4.03;;;24.40;58.60;;;;;;4953330;29;20435;-51
2021/07/28 10:04:32;;;;;;;5.30;4.80;;;24.50;58.10;;;;;;4953843;29;20423;-49
2021/07/28 10:07:00;;;;;;;5.20;3.90;;;24.70;57.80;;;;;;4952481;29;20428;-52
2021/07/28 10:09:30;;;;;;;7.03;3.73;;;24.80;57.10;;;;;;4953601;28;20432;-52
2021/07/28 10:11:58;;;;;;;4.60;4.10;;;25.00;56.70;;;;;;4952938;29;21042;-52
2021/07/28 10:14:24;;;;;;;5.30;4.10;;;25.20;56.50;;;;;;4953777;29;20436;-52
2021/07/28 10:16:52;;;;;;;6.07;4.00;;;25.30;56.60;;;;;;4952195;29;20430;-52
2021/07/28 10:19:18;;;;;;;4.73;4.33;;;25.60;56.30;;;;;;4951779;29;20196;-52
2021/07/28 10:21:45;;;;;;;4.10;3.70;;;25.60;54.50;;;;;;4935824;29;20524;-47
2021/07/28 10:24:12;;;;;;;3.93;3.63;;;25.60;54.20;;;;;;4933783;29;20427;-49
2021/07/28 10:26:43;;;;;;;7.23;4.30;;;25.80;54.10;;;;;;4932789;29;20526;-47
2021/07/28 10:29:10;;;;;;;4.20;3.90;;;25.90;53.60;;;;;;4933873;29;20948;-46
2021/07/28 10:31:50;;;;;;;4.63;3.90;;;25.90;53.20;;;;;;4945030;28;20432;-47
2021/07/28 10:34:36;;;;;;;4.63;4.10;;;25.90;52.20;;;;;;4953008;29;20439;-51
2021/07/28 10:37:04;;;;;;;4.37;3.97;;;25.90;52.40;;;;;;4952327;29;20449;-48
2021/07/28 10:39:39;;;;;;;5.10;4.17;;;26.00;52.70;;;;;;4952659;28;20444;-47
2021/07/28 10:42:15;;;;;;;4.70;3.90;;;26.00;52.30;;;;;;4952109;28;20842;-49
2021/07/28 10:45:02;;;;;;;4.73;4.10;;;26.10;52.90;;;;;;4950587;28;20439;-51
2021/07/28 10:47:47;;;;;;;4.57;4.17;;;26.00;51.90;;;;;;4952204;29;20514;-49
2021/07/28 10:50:30;;;;;;;4.33;3.93;;;26.00;51.70;;;;;;4952495;29;20482;-47
2021/07/28 10:53:01;;;;;;;3.90;3.60;;;26.10;51.40;;;;;;4952293;28;20487;-48
2021/07/28 10:55:31;;;;;;;3.70;3.40;;;25.80;51.40;;;;;;4952376;28;20455;-47
2021/07/28 10:58:09;;;;;;;3.90;3.60;;;25.80;51.90;;;;;;4952804;28;20435;-47
2021/07/28 11:00:38;;;;;;;5.37;3.80;;;25.90;52.40;;;;;;4956316;29;20442;-48
2021/07/28 11:03:04;;;;;;;3.67;3.37;;;26.00;52.40;;;;;;4956800;29;20928;-49
2021/07/28 11:05:34;;;;;;;4.50;3.67;;;26.10;51.80;;;;;;4955951;29;20443;-50
2021/07/28 11:08:04;;;;;;;4.50;4.10;;;26.30;51.60;;;;;;4957024;29;20443;-47
2021/07/28 11:10:40;;;;;;;4.43;4.03;;;26.50;51.50;;;;;;4956441;28;20534;-52
2021/07/28 11:13:08;;;;;;;5.53;4.07;;;26.60;51.00;;;;;;4955034;29;20579;-47
2021/07/28 11:15:35;;;;;;;3.53;3.20;;;26.60;50.00;;;;;;4955628;29;20527;-51
2021/07/28 11:18:02;;;;;;;7.93;4.60;;;26.70;50.00;;;;;;4956011;28;20474;-47
2021/07/28 11:20:32;;;;;;;3.87;3.57;;;26.60;50.40;;;;;;4949292;28;20499;-47
2021/07/28 11:23:26;;;;;;;4.40;3.67;;;26.60;49.20;;;;;;4936981;29;20963;-47
2021/07/28 11:25:52;;;;;;;5.10;3.60;;;26.60;49.50;;;;;;4936352;29;20491;-50
2021/07/28 11:28:19;;;;;;;6.53;4.00;;;26.60;49.70;;;;;;4937299;29;20440;-47
2021/07/28 11:30:58;;;;;;;4.70;4.17;;;26.70;49.90;;;;;;4942246;28;20539;-47
2021/07/28 11:33:24;;;;;;;4.47;4.07;;;26.80;49.50;;;;;;4956170;29;20531;-47
2021/07/28 11:35:52;;;;;;;4.83;4.17;;;26.80;49.80;;;;;;4955307;28;20450;-47
2021/07/28 11:38:22;;;;;;;4.00;3.60;;;26.80;49.90;;;;;;4954772;29;20431;-47
2021/07/28 11:40:54;;;;;;;4.57;4.17;;;27.00;48.90;;;;;;4955486;29;20473;-50
2021/07/28 11:43:23;;;;;;;4.03;3.73;;;27.10;50.00;;;;;;4955961;28;20478;-48
2021/07/28 11:45:49;;;;;;;4.37;3.97;;;27.20;49.40;;;;;;4955195;29;20458;-48
2021/07/28 11:48:33;;;;;;;4.57;3.93;;;27.30;48.30;;;;;;4956006;29;20487;-48
2021/07/28 11:51:08;;;;;;;5.07;3.87;;;27.50;49.20;;;;;;4954969;29;20447;-47
2021/07/28 11:53:35;;;;;;;4.63;4.23;;;27.70;48.40;;;;;;4955747;28;20546;-49
2021/07/28 11:56:06;;;;;;;7.33;3.70;;;27.80;48.10;;;;;;4954809;28;20428;-47
2021/07/28 11:58:32;;;;;;;4.63;4.23;;;27.90;48.10;;;;;;4956081;29;20435;-48
2021/07/28 12:00:57;;;;;;;4.40;4.00;;;28.00;47.80;;;;;;4955197;29;20854;-47
2021/07/28 12:03:27;;;;;;;3.93;3.30;;;28.50;47.70;;;;;;4955609;28;20202;-47
2021/07/28 12:06:04;;;;;;;5.40;4.27;;;28.50;46.90;;;;;;4953260;29;20204;-48
2021/07/28 12:08:35;;;;;;;4.83;4.23;;;28.70;46.30;;;;;;4955667;28;20506;-47
2021/07/28 12:11:02;;;;;;;4.40;3.97;;;28.60;45.70;;;;;;4954786;28;20462;-48
2021/07/28 12:13:47;;;;;;;4.57;4.17;;;28.90;46.10;;;;;;4955212;28;21046;-47
2021/07/28 12:16:14;;;;;;;4.80;4.10;;;29.20;45.30;;;;;;4954605;29;20478;-47
2021/07/28 12:18:44;;;;;;;4.90;4.40;;;29.30;44.90;;;;;;4955275;29;20538;-49
2021/07/28 12:21:10;;;;;;;5.37;4.00;;;29.40;44.10;;;;;;4942200;28;20495;-48
2021/07/28 12:23:36;;;;;;;4.60;4.20;;;29.60;43.70;;;;;;4936055;29;20841;-47
2021/07/28 12:26:02;;;;;;;4.60;4.13;;;29.50;43.20;;;;;;4935184;29;20201;-49
2021/07/28 12:28:48;;;;;;;4.57;4.17;;;29.30;44.30;;;;;;4936093;29;20451;-47
2021/07/28 12:31:29;;;;;;;4.37;3.97;;;29.00;45.00;;;;;;4943118;29;20434;-48
2021/07/28 12:34:15;;;;;;;6.07;4.10;;;29.20;44.60;;;;;;4955003;29;20443;-47
2021/07/28 12:36:41;;;;;;;4.20;3.90;;;29.60;44.60;;;;;;4954119;29;20439;-48
2021/07/28 12:39:06;;;;;;;6.27;4.20;;;29.80;43.20;;;;;;4955110;28;20424;-52
2021/07/28 12:41:32;;;;;;;4.20;3.83;;;29.90;42.40;;;;;;4954684;29;20644;-48
2021/07/28 12:43:57;;;;;;;4.97;4.57;;;29.90;42.60;;;;;;4955092;29;20562;-48